createdAt,value
2019-02-25T00:00:15.160Z,103334.58
2019-02-25T00:01:27.508Z,103331.06
2019-02-25T00:02:32.656Z,103329.69
2019-02-25T00:03:37.530Z,103330.08
2019-02-25T00:04:42.497Z,103330.48
2019-02-25T00:05:47.495Z,103333.78
2019-02-25T00:06:52.214Z,103330.38
2019-02-25T00:07:57.234Z,103329.22
2019-02-25T00:09:02.480Z,103338.64
2019-02-25T00:10:07.681Z,103331.45
2019-02-25T00:11:12.982Z,103331.52
2019-02-25T00:12:18.267Z,103341.06
2019-02-25T00:13:23.225Z,103335.80
2019-02-25T00:14:28.480Z,103336.16
2019-02-25T00:15:33.466Z,103333.56
2019-02-25T00:16:38.717Z,103333.88
2019-02-25T00:17:44.224Z,103333.59
2019-02-25T00:18:49.481Z,103328.25
2019-02-25T00:19:54.178Z,103332.02
2019-02-25T00:20:59.070Z,103332.34
2019-02-25T00:22:04.065Z,103337.33
2019-02-25T00:23:09.309Z,103333.45
2019-02-25T00:24:14.559Z,103327.86
2019-02-25T00:25:19.541Z,103333.08
2019-02-25T00:26:24.503Z,103334.80
2019-02-25T00:27:29.779Z,103327.57
2019-02-25T00:28:34.513Z,103319.00
2019-02-25T00:29:39.006Z,103317.97
2019-02-25T00:30:43.977Z,103320.73
2019-02-25T00:31:49.252Z,103321.17
2019-02-25T00:32:54.491Z,103324.13
2019-02-25T00:34:00.039Z,103326.56
2019-02-25T00:35:04.601Z,103321.19
2019-02-25T00:36:09.340Z,103327.46
2019-02-25T00:37:14.359Z,103323.85
2019-02-25T00:38:19.021Z,103328.41
2019-02-25T00:39:24.323Z,103324.72
2019-02-25T00:40:29.998Z,103329.91
2019-02-25T00:41:34.958Z,103326.98
2019-02-25T00:42:40.271Z,103328.97
2019-02-25T00:43:45.278Z,103329.15
2019-02-25T00:44:50.519Z,103324.26
2019-02-25T00:45:55.514Z,103325.55
2019-02-25T00:47:00.200Z,103329.83
2019-02-25T00:48:04.885Z,103331.47
2019-02-25T00:49:09.723Z,103328.67
2019-02-25T00:50:15.012Z,103326.44
2019-02-25T00:51:20.089Z,103330.60
2019-02-25T00:52:25.315Z,103328.02
2019-02-25T00:53:30.532Z,103330.78
2019-02-25T00:54:35.815Z,103331.53
2019-02-25T00:55:40.804Z,103337.45
2019-02-25T00:56:45.511Z,103333.09
2019-02-25T00:57:50.901Z,103338.49
2019-02-25T00:58:56.094Z,103332.22
2019-02-25T01:00:01.407Z,103336.80
2019-02-25T01:01:06.496Z,103338.77
2019-02-25T01:02:11.285Z,103338.48
2019-02-25T01:03:16.558Z,103339.36
2019-02-25T01:04:21.886Z,103341.27
2019-02-25T01:05:27.151Z,103339.83
2019-02-25T01:06:32.126Z,103344.31
2019-02-25T01:07:37.361Z,103345.15
2019-02-25T01:08:42.340Z,103346.22
2019-02-25T01:09:47.283Z,103344.55
2019-02-25T01:10:52.274Z,103343.90
2019-02-25T01:11:57.234Z,103345.52
2019-02-25T01:13:02.203Z,103343.62
2019-02-25T01:14:06.873Z,103346.22
2019-02-25T01:15:12.307Z,103346.84
2019-02-25T01:16:17.009Z,103343.94
2019-02-25T01:17:22.251Z,103337.24
2019-02-25T01:18:27.175Z,103348.98
2019-02-25T01:19:31.879Z,103342.71
2019-02-25T01:20:37.147Z,103336.38
2019-02-25T01:21:42.197Z,103344.55
2019-02-25T01:22:46.868Z,103343.25
2019-02-25T01:23:51.922Z,103345.59
2019-02-25T01:24:56.920Z,103345.14
2019-02-25T01:26:01.877Z,103347.92
2019-02-25T01:27:06.875Z,103349.08
2019-02-25T01:28:12.170Z,103347.89
2019-02-25T01:29:17.140Z,103349.31
2019-02-25T01:30:22.338Z,103345.84
2019-02-25T01:31:27.943Z,103342.09
2019-02-25T01:32:32.993Z,103341.91
2019-02-25T01:33:37.973Z,103340.52
2019-02-25T01:34:42.972Z,103339.79
2019-02-25T01:35:48.256Z,103338.45
2019-02-25T01:36:53.533Z,103336.45
2019-02-25T01:37:58.505Z,103333.61
2019-02-25T01:39:04.007Z,103331.67
2019-02-25T01:40:09.866Z,103333.36
2019-02-25T01:41:14.833Z,103340.19
2019-02-25T01:42:20.086Z,103337.33
2019-02-25T01:43:25.383Z,103339.47
2019-02-25T01:44:30.432Z,103340.78
2019-02-25T01:45:35.459Z,103338.63
2019-02-25T01:46:40.451Z,103334.98
2019-02-25T01:47:45.700Z,103335.79
2019-02-25T01:48:50.662Z,103333.44
2019-02-25T01:49:56.200Z,103333.92
2019-02-25T01:51:01.191Z,103334.09
2019-02-25T01:52:06.587Z,103331.27
2019-02-25T01:53:11.605Z,103330.09
2019-02-25T01:54:16.570Z,103329.41
2019-02-25T01:55:21.570Z,103327.23
2019-02-25T01:56:26.867Z,103328.13
2019-02-25T01:57:31.846Z,103333.30
2019-02-25T01:58:36.802Z,103338.02
2019-02-25T01:59:42.092Z,103340.75
2019-02-25T02:00:47.082Z,103337.84
2019-02-25T02:01:52.842Z,103341.59
2019-02-25T02:02:57.663Z,103342.29
2019-02-25T02:04:02.640Z,103344.91
2019-02-25T02:05:09.634Z,103351.01
2019-02-25T02:06:14.632Z,103341.65
2019-02-25T02:07:20.152Z,103351.89
2019-02-25T02:08:25.312Z,103358.11
2019-02-25T02:09:30.313Z,103351.53
2019-02-25T02:10:35.544Z,103351.84
2019-02-25T02:11:41.235Z,103358.55
2019-02-25T02:12:46.235Z,103361.16
2019-02-25T02:13:51.206Z,103367.92
2019-02-25T02:14:56.440Z,103368.20
2019-02-25T02:16:01.425Z,103364.05
2019-02-25T02:17:06.570Z,103362.16
2019-02-25T02:18:11.557Z,103372.56
2019-02-25T02:19:16.554Z,103364.52
2019-02-25T02:20:21.252Z,103369.13
2019-02-25T02:21:26.248Z,103372.44
2019-02-25T02:22:31.025Z,103375.42
2019-02-25T02:23:35.466Z,103364.77
2019-02-25T02:24:40.447Z,103363.59
2019-02-25T02:25:46.033Z,103366.77
2019-02-25T02:26:50.559Z,103365.00
2019-02-25T02:27:55.020Z,103361.98
2019-02-25T02:29:00.593Z,103371.73
2019-02-25T02:30:06.597Z,103362.25
2019-02-25T02:31:11.574Z,103361.14
2019-02-25T02:32:16.573Z,103360.20
2019-02-25T02:33:21.913Z,103357.98
2019-02-25T02:34:27.443Z,103355.68
2019-02-25T02:35:32.443Z,103358.95
2019-02-25T02:36:37.193Z,103363.27
2019-02-25T02:37:42.777Z,103361.05
2019-02-25T02:38:49.041Z,103355.97
2019-02-25T02:39:54.321Z,103357.55
2019-02-25T02:40:59.019Z,103349.71
2019-02-25T02:42:13.311Z,103351.36
2019-02-25T02:43:18.496Z,103349.39
2019-02-25T02:44:23.466Z,103341.08
2019-02-25T02:45:43.395Z,103341.89
2019-02-25T02:47:15.121Z,103342.81
2019-02-25T02:48:33.336Z,103342.85
2019-02-25T02:49:38.375Z,103334.95
2019-02-25T02:50:43.632Z,103338.02
2019-02-25T02:51:48.957Z,103341.92
2019-02-25T02:52:53.939Z,103335.75
2019-02-25T02:53:58.984Z,103332.84
2019-02-25T02:55:03.770Z,103333.53
2019-02-25T02:56:10.782Z,103330.99
2019-02-25T02:57:15.748Z,103332.20
2019-02-25T02:58:20.989Z,103335.06
2019-02-25T02:59:26.261Z,103332.20
2019-02-25T03:00:31.496Z,103333.61
2019-02-25T03:01:36.467Z,103330.83
2019-02-25T03:02:41.717Z,103335.71
2019-02-25T03:03:47.259Z,103334.02
2019-02-25T03:04:52.230Z,103328.73
2019-02-25T03:05:57.239Z,103331.46
2019-02-25T03:07:02.224Z,103328.25
2019-02-25T03:08:07.227Z,103331.16
2019-02-25T03:09:12.238Z,103328.91
2019-02-25T03:10:18.821Z,103327.44
2019-02-25T03:11:24.045Z,103330.70
2019-02-25T03:12:29.310Z,103333.81
2019-02-25T03:13:34.846Z,103328.00
2019-02-25T03:14:40.122Z,103329.36
2019-02-25T03:15:45.149Z,103326.78
2019-02-25T03:16:50.485Z,103322.56
2019-02-25T03:17:56.014Z,103318.77
2019-02-25T03:19:01.007Z,103315.91
2019-02-25T03:20:06.389Z,103314.86
2019-02-25T03:21:11.631Z,103318.52
2019-02-25T03:22:16.616Z,103318.52
2019-02-25T03:23:21.872Z,103321.86
2019-02-25T03:24:26.620Z,103321.67
2019-02-25T03:25:31.344Z,103323.20
2019-02-25T03:26:36.589Z,103328.77
2019-02-25T03:27:41.548Z,103332.36
2019-02-25T03:28:46.818Z,103335.80
2019-02-25T03:29:51.291Z,103337.12
2019-02-25T03:30:56.255Z,103340.71
2019-02-25T03:32:01.529Z,103334.91
2019-02-25T03:33:06.283Z,103337.16
2019-02-25T03:34:11.547Z,103333.08
2019-02-25T03:35:16.413Z,103342.31
2019-02-25T03:36:21.654Z,103341.23
2019-02-25T03:37:26.892Z,103342.53
2019-02-25T03:38:32.154Z,103340.70
2019-02-25T03:39:36.838Z,103336.55
2019-02-25T03:40:41.929Z,103337.77
2019-02-25T03:41:47.196Z,103331.75
2019-02-25T03:42:52.289Z,103330.27
2019-02-25T03:43:58.277Z,103331.23
2019-02-25T03:45:03.347Z,103335.46
2019-02-25T03:46:09.447Z,103328.36
2019-02-25T03:47:14.661Z,103325.98
2019-02-25T03:48:19.903Z,103328.32
2019-02-25T03:49:25.162Z,103332.24
2019-02-25T03:50:30.415Z,103335.34
2019-02-25T03:51:35.704Z,103328.57
2019-02-25T03:52:40.963Z,103328.32
2019-02-25T03:53:46.267Z,103330.27
2019-02-25T03:54:51.713Z,103332.28
2019-02-25T03:55:56.760Z,103335.63
2019-02-25T03:57:02.363Z,103332.27
2019-02-25T03:58:07.354Z,103330.20
2019-02-25T03:59:12.324Z,103335.59
2019-02-25T04:00:19.247Z,103331.39
2019-02-25T04:01:24.234Z,103326.25
2019-02-25T04:02:29.481Z,103328.75
2019-02-25T04:03:35.004Z,103332.09
2019-02-25T04:04:40.226Z,103328.62
2019-02-25T04:05:45.212Z,103330.65
2019-02-25T04:06:50.197Z,103333.09
2019-02-25T04:07:54.675Z,103324.98
2019-02-25T04:09:00.184Z,103330.15
2019-02-25T04:10:06.089Z,103318.86
2019-02-25T04:11:11.778Z,103335.48
2019-02-25T04:12:17.059Z,103335.22
2019-02-25T04:13:22.327Z,103342.77
2019-02-25T04:14:27.878Z,103342.66
2019-02-25T04:15:38.598Z,103343.39
2019-02-25T04:16:43.589Z,103337.79
2019-02-25T04:17:48.606Z,103341.85
2019-02-25T04:18:53.863Z,103337.98
2019-02-25T04:19:58.857Z,103343.48
2019-02-25T04:21:03.822Z,103349.13
2019-02-25T04:22:08.885Z,103347.75
2019-02-25T04:23:14.181Z,103345.53
2019-02-25T04:24:19.685Z,103344.11
2019-02-25T04:25:25.248Z,103342.82
2019-02-25T04:26:30.227Z,103339.88
2019-02-25T04:27:34.926Z,103345.80
2019-02-25T04:28:40.175Z,103350.24
2019-02-25T04:29:45.653Z,103344.42
2019-02-25T04:30:50.291Z,103350.42
2019-02-25T04:31:55.545Z,103345.49
2019-02-25T04:33:01.112Z,103344.95
2019-02-25T04:34:05.567Z,103349.27
2019-02-25T04:35:11.060Z,103340.91
2019-02-25T04:36:16.314Z,103345.09
2019-02-25T04:37:21.565Z,103345.61
2019-02-25T04:38:28.035Z,103343.09
2019-02-25T04:39:33.397Z,103345.49
2019-02-25T04:40:38.946Z,103353.39
2019-02-25T04:41:43.904Z,103343.42
2019-02-25T04:42:49.176Z,103341.27
2019-02-25T04:43:54.519Z,103345.45
2019-02-25T04:44:59.845Z,103350.64
2019-02-25T04:46:05.373Z,103350.47
2019-02-25T04:47:10.669Z,103348.87
2019-02-25T04:48:15.907Z,103344.50
2019-02-25T04:49:21.167Z,103343.80
2019-02-25T04:50:26.123Z,103343.31
2019-02-25T04:51:31.384Z,103343.26
2019-02-25T04:52:36.672Z,103346.42
2019-02-25T04:53:41.942Z,103351.22
2019-02-25T04:54:47.242Z,103346.52
2019-02-25T04:55:52.271Z,103346.69
2019-02-25T04:56:57.501Z,103341.53
2019-02-25T04:58:02.526Z,103342.38
2019-02-25T04:59:07.227Z,103340.64
2019-02-25T05:00:14.305Z,103341.48
2019-02-25T05:01:19.271Z,103336.58
2019-02-25T05:02:24.802Z,103333.02
2019-02-25T05:03:30.044Z,103337.66
2019-02-25T05:04:36.798Z,103339.36
2019-02-25T05:05:41.783Z,103341.39
2019-02-25T05:06:46.843Z,103336.43
2019-02-25T05:07:52.355Z,103336.86
2019-02-25T05:08:57.024Z,103328.33
2019-02-25T05:10:02.114Z,103327.70
2019-02-25T05:11:07.074Z,103332.22
2019-02-25T05:12:12.047Z,103327.48
2019-02-25T05:13:17.111Z,103326.16
2019-02-25T05:14:22.689Z,103330.75
2019-02-25T05:15:28.168Z,103322.28
2019-02-25T05:16:33.799Z,103327.18
2019-02-25T05:17:39.324Z,103323.95
2019-02-25T05:18:44.089Z,103321.52
2019-02-25T05:19:48.831Z,103322.47
2019-02-25T05:20:54.389Z,103319.61
2019-02-25T05:22:00.133Z,103322.54
2019-02-25T05:23:05.388Z,103313.77
2019-02-25T05:24:10.755Z,103312.08
2019-02-25T05:25:15.978Z,103305.66
2019-02-25T05:26:21.310Z,103305.21
2019-02-25T05:27:26.400Z,103311.58
2019-02-25T05:28:31.638Z,103311.66
2019-02-25T05:29:36.888Z,103308.02
2019-02-25T05:30:42.148Z,103308.60
2019-02-25T05:31:47.413Z,103308.32
2019-02-25T05:32:52.663Z,103310.92
2019-02-25T05:33:57.756Z,103312.06
2019-02-25T05:35:02.756Z,103316.73
2019-02-25T05:36:07.571Z,103318.20
2019-02-25T05:37:12.537Z,103313.98
2019-02-25T05:38:18.068Z,103314.77
2019-02-25T05:39:23.372Z,103309.41
2019-02-25T05:40:28.625Z,103317.00
2019-02-25T05:41:33.886Z,103318.95
2019-02-25T05:42:38.945Z,103322.98
2019-02-25T05:43:43.629Z,103318.77
2019-02-25T05:44:48.433Z,103318.37
2019-02-25T05:45:53.383Z,103323.86
2019-02-25T05:46:58.648Z,103322.02
2019-02-25T05:48:03.919Z,103324.80
2019-02-25T05:49:09.234Z,103327.22
2019-02-25T05:50:14.685Z,103333.17
2019-02-25T05:51:19.653Z,103331.09
2019-02-25T05:52:24.451Z,103328.82
2019-02-25T05:53:29.479Z,103327.08
2019-02-25T05:54:34.161Z,103324.98
2019-02-25T05:55:38.909Z,103329.72
2019-02-25T05:56:43.892Z,103327.22
2019-02-25T05:57:49.805Z,103330.63
2019-02-25T05:58:55.059Z,103336.06
2019-02-25T06:00:00.031Z,103333.58
2019-02-25T06:01:05.141Z,103331.58
2019-02-25T06:02:10.511Z,103339.39
2019-02-25T06:03:15.585Z,103333.34
2019-02-25T06:04:20.879Z,103335.94
2019-02-25T06:05:25.892Z,103339.18
2019-02-25T06:06:30.887Z,103332.80
2019-02-25T06:07:35.571Z,103333.29
2019-02-25T06:08:41.094Z,103333.92
2019-02-25T06:09:46.134Z,103338.27
2019-02-25T06:10:51.100Z,103338.27
2019-02-25T06:11:55.797Z,103344.94
2019-02-25T06:13:01.040Z,103338.41
2019-02-25T06:14:09.761Z,103340.91
2019-02-25T06:15:15.055Z,103337.84
2019-02-25T06:16:20.334Z,103326.91
2019-02-25T06:17:25.307Z,103330.69
2019-02-25T06:18:30.312Z,103322.02
2019-02-25T06:19:35.316Z,103328.77
2019-02-25T06:20:40.581Z,103327.53
2019-02-25T06:21:45.901Z,103327.39
2019-02-25T06:22:50.856Z,103327.08
2019-02-25T06:23:56.114Z,103324.10
2019-02-25T06:25:01.143Z,103332.05
2019-02-25T06:26:05.697Z,103325.29
2019-02-25T06:27:10.459Z,103335.20
2019-02-25T06:28:15.716Z,103333.28
2019-02-25T06:29:20.691Z,103329.26
2019-02-25T06:30:25.142Z,103330.12
2019-02-25T06:31:30.191Z,103331.67
2019-02-25T06:32:35.167Z,103329.88
2019-02-25T06:33:40.331Z,103335.75
2019-02-25T06:34:45.313Z,103332.25
2019-02-25T06:35:50.268Z,103336.91
2019-02-25T06:36:55.542Z,103331.09
2019-02-25T06:38:01.100Z,103339.05
2019-02-25T06:39:07.294Z,103342.66
2019-02-25T06:40:15.680Z,103337.45
2019-02-25T06:41:20.354Z,103343.01
2019-02-25T06:42:25.612Z,103346.31
2019-02-25T06:43:30.936Z,103346.58
2019-02-25T06:44:36.272Z,103346.22
2019-02-25T06:45:41.279Z,103344.63
2019-02-25T06:46:45.968Z,103346.47
2019-02-25T06:47:50.646Z,103348.16
2019-02-25T06:48:56.208Z,103350.90
2019-02-25T06:50:01.180Z,103351.70
2019-02-25T06:51:07.354Z,103359.69
2019-02-25T06:52:12.050Z,103360.05
2019-02-25T06:53:16.726Z,103358.87
2019-02-25T06:54:24.255Z,103362.03
2019-02-25T06:55:29.245Z,103354.12
2019-02-25T06:56:34.042Z,103355.17
2019-02-25T06:57:38.722Z,103358.63
2019-02-25T06:58:43.699Z,103357.03
2019-02-25T06:59:48.400Z,103354.02
2019-02-25T07:00:53.370Z,103353.30
2019-02-25T07:01:57.877Z,103361.55
2019-02-25T07:03:02.845Z,103358.09
2019-02-25T07:04:22.740Z,103362.50
2019-02-25T07:05:41.692Z,103357.64
2019-02-25T07:06:55.154Z,103358.23
2019-02-25T07:08:05.054Z,103356.06
2019-02-25T07:09:17.884Z,103363.38
2019-02-25T07:10:39.504Z,103358.47
2019-02-25T07:11:50.458Z,103353.75
2019-02-25T07:13:16.193Z,103351.66
2019-02-25T07:14:31.912Z,103356.95
2019-02-25T07:15:54.422Z,103355.92
2019-02-25T07:17:33.732Z,103355.47
2019-02-25T07:18:57.625Z,103359.76
2019-02-25T07:20:30.353Z,103362.34
2019-02-25T07:21:46.447Z,103357.42
2019-02-25T07:23:03.521Z,103356.03
2019-02-25T07:24:26.705Z,103359.11
2019-02-25T07:26:05.455Z,103357.83
2019-02-25T07:27:28.076Z,103356.78
2019-02-25T07:28:51.664Z,103355.67
2019-02-25T07:30:15.496Z,103350.41
2019-02-25T07:31:39.626Z,103354.03
2019-02-25T07:33:10.362Z,103358.44
2019-02-25T07:34:28.930Z,103351.28
2019-02-25T07:36:11.701Z,103357.42
2019-02-25T07:37:35.039Z,103358.44
2019-02-25T07:38:58.657Z,103353.97
2019-02-25T07:40:22.345Z,103355.84
2019-02-25T07:41:45.397Z,103357.11
2019-02-25T07:43:12.349Z,103353.22
2019-02-25T07:44:24.888Z,103352.86
2019-02-25T07:45:51.568Z,103344.19
2019-02-25T07:47:05.300Z,103348.27
2019-02-25T07:48:35.678Z,103351.80
2019-02-25T07:49:59.013Z,103344.36
2019-02-25T07:51:10.198Z,103352.78
2019-02-25T07:52:28.537Z,103348.64
2019-02-25T07:53:52.018Z,103349.41
2019-02-25T07:55:25.222Z,103341.26
2019-02-25T07:56:38.170Z,103346.46
2019-02-25T07:57:51.407Z,103339.91
2019-02-25T07:59:18.311Z,103335.73
2019-02-25T08:00:51.537Z,103343.41
2019-02-25T08:02:18.890Z,103343.91
2019-02-25T08:03:30.132Z,103346.59
2019-02-25T08:05:03.365Z,103348.63
2019-02-25T08:06:33.054Z,103346.42
2019-02-25T08:07:50.278Z,103344.77
2019-02-25T08:09:14.450Z,103348.20
2019-02-25T08:10:35.064Z,103350.83
2019-02-25T08:11:54.167Z,103353.77
2019-02-25T08:13:16.738Z,103349.12
2019-02-25T08:14:28.174Z,103351.67
2019-02-25T08:15:50.998Z,103350.23
2019-02-25T08:17:18.357Z,103348.83
2019-02-25T08:18:42.196Z,103346.53
2019-02-25T08:19:55.346Z,103349.80
2019-02-25T08:21:28.578Z,103349.36
2019-02-25T08:22:58.957Z,103349.04
2019-02-25T08:24:30.605Z,103354.47
2019-02-25T08:25:52.076Z,103351.95
2019-02-25T08:27:18.756Z,103358.50
2019-02-25T08:28:49.695Z,103363.17
2019-02-25T08:30:12.972Z,103366.38
2019-02-25T08:31:39.635Z,103369.95
2019-02-25T08:32:54.411Z,103371.55
2019-02-25T08:34:18.932Z,103373.05
2019-02-25T08:36:07.762Z,103383.39
2019-02-25T08:37:36.824Z,103383.11
2019-02-25T08:39:10.020Z,103385.72
2019-02-25T08:41:20.367Z,103384.47
2019-02-25T08:42:32.482Z,103392.25
2019-02-25T08:44:03.294Z,103393.32
2019-02-25T08:45:29.875Z,103386.20
2019-02-25T08:46:55.127Z,103389.88
2019-02-25T08:48:04.336Z,103391.45
2019-02-25T08:49:37.263Z,103391.50
2019-02-25T08:50:41.989Z,103394.02
2019-02-25T08:51:47.559Z,103391.78
2019-02-25T08:52:52.530Z,103389.84
2019-02-25T08:53:57.312Z,103388.68
2019-02-25T08:55:01.990Z,103391.12
2019-02-25T08:56:07.103Z,103390.94
2019-02-25T08:57:12.371Z,103389.15
2019-02-25T08:58:17.363Z,103391.59
2019-02-25T08:59:22.929Z,103388.26
2019-02-25T09:00:27.691Z,103385.13
2019-02-25T09:01:32.113Z,103385.00
2019-02-25T09:02:37.424Z,103387.08
2019-02-25T09:03:42.123Z,103385.58
2019-02-25T09:04:49.161Z,103385.76
2019-02-25T09:05:53.931Z,103384.78
2019-02-25T09:06:58.974Z,103386.34
2019-02-25T09:08:03.689Z,103387.34
2019-02-25T09:09:09.064Z,103392.30
2019-02-25T09:10:14.818Z,103384.52
2019-02-25T09:11:19.525Z,103384.43
2019-02-25T09:12:25.085Z,103381.98
2019-02-25T09:13:30.053Z,103385.58
2019-02-25T09:14:35.585Z,103386.54
2019-02-25T09:15:40.327Z,103386.75
2019-02-25T09:16:45.297Z,103387.95
2019-02-25T09:17:48.271Z,103394.06
2019-02-25T09:18:52.984Z,103390.47
2019-02-25T09:19:57.939Z,103393.09
2019-02-25T09:21:03.185Z,103388.61
2019-02-25T09:22:07.974Z,103389.14
2019-02-25T09:23:13.469Z,103385.98
2019-02-25T09:24:18.213Z,103387.12
2019-02-25T09:25:22.704Z,103391.52
2019-02-25T09:26:27.692Z,103394.00
2019-02-25T09:27:32.708Z,103398.36
2019-02-25T09:28:37.393Z,103405.78
2019-02-25T09:29:42.390Z,103399.23
2019-02-25T09:30:47.629Z,103399.36
2019-02-25T09:31:52.615Z,103394.11
2019-02-25T09:32:57.615Z,103392.19
2019-02-25T09:34:02.870Z,103397.82
2019-02-25T09:35:07.915Z,103396.13
2019-02-25T09:36:12.603Z,103391.96
2019-02-25T09:37:17.865Z,103396.93
2019-02-25T09:38:23.703Z,103389.64
2019-02-25T09:39:28.714Z,103395.72
2019-02-25T09:40:33.995Z,103392.75
2019-02-25T09:41:38.708Z,103392.27
2019-02-25T09:42:43.439Z,103397.84
2019-02-25T09:43:48.688Z,103282.47
2019-02-25T09:44:53.695Z,103400.09
2019-02-25T09:45:58.936Z,103388.36
2019-02-25T09:47:05.174Z,103397.15
2019-02-25T09:48:12.273Z,103362.23
2019-02-25T09:49:16.951Z,103391.19
2019-02-25T09:50:21.724Z,103402.91
2019-02-25T09:51:26.301Z,103401.34
2019-02-25T09:52:31.584Z,103400.38
2019-02-25T09:53:36.728Z,103397.59
2019-02-25T09:54:44.743Z,103399.75
2019-02-25T09:55:49.700Z,103397.20
2019-02-25T09:56:54.636Z,103403.67
2019-02-25T09:57:59.630Z,103402.55
2019-02-25T09:59:04.695Z,103404.90
2019-02-25T10:00:12.605Z,103404.25
2019-02-25T10:01:18.244Z,103411.76
2019-02-25T10:02:24.785Z,103412.86
2019-02-25T10:03:30.116Z,103408.93
2019-02-25T10:04:35.375Z,103416.44
2019-02-25T10:05:40.085Z,103416.00
2019-02-25T10:06:45.048Z,103418.60
2019-02-25T10:07:50.301Z,103418.20
2019-02-25T10:08:55.302Z,103418.34
2019-02-25T10:10:00.569Z,103412.55
2019-02-25T10:11:05.311Z,103417.41
2019-02-25T10:12:10.570Z,103411.48
2019-02-25T10:13:15.867Z,103427.14
2019-02-25T10:14:21.605Z,103424.45
2019-02-25T10:15:26.686Z,103433.78
2019-02-25T10:16:31.370Z,103431.23
2019-02-25T10:17:36.644Z,103428.09
2019-02-25T10:18:41.392Z,103430.88
2019-02-25T10:19:47.169Z,103434.05
2019-02-25T10:20:52.162Z,103438.17
2019-02-25T10:21:56.874Z,103437.93
2019-02-25T10:23:01.864Z,103437.48
2019-02-25T10:24:06.895Z,103429.70
2019-02-25T10:25:11.371Z,103430.27
2019-02-25T10:26:16.994Z,103434.93
2019-02-25T10:27:21.956Z,103436.33
2019-02-25T10:28:27.501Z,103443.91
2019-02-25T10:29:32.748Z,103436.96
2019-02-25T10:30:37.756Z,103439.35
2019-02-25T10:31:43.796Z,103436.99
2019-02-25T10:32:48.593Z,103442.44
2019-02-25T10:33:53.028Z,103439.33
2019-02-25T10:34:57.715Z,103437.21
2019-02-25T10:36:02.694Z,103433.16
2019-02-25T10:37:08.967Z,103439.05
2019-02-25T10:38:14.987Z,103440.84
2019-02-25T10:39:20.239Z,103437.34
2019-02-25T10:40:27.381Z,103430.95
2019-02-25T10:41:31.105Z,103430.96
2019-02-25T10:42:37.709Z,103430.78
2019-02-25T10:43:42.772Z,103431.72
2019-02-25T10:44:48.026Z,103423.34
2019-02-25T10:45:52.704Z,103413.14
2019-02-25T10:46:57.394Z,103405.39
2019-02-25T10:48:02.345Z,103399.61
2019-02-25T10:49:11.517Z,103394.00
2019-02-25T10:50:16.359Z,103404.87
2019-02-25T10:51:20.842Z,103400.24
2019-02-25T10:52:25.534Z,103398.88
2019-02-25T10:53:30.258Z,103400.34
2019-02-25T10:54:35.470Z,103400.22
2019-02-25T10:55:46.712Z,103404.31
2019-02-25T10:56:55.859Z,103400.97
2019-02-25T10:58:03.654Z,103400.08
2019-02-25T10:59:08.411Z,103397.86
2019-02-25T11:00:15.194Z,103397.47
2019-02-25T11:01:22.249Z,103393.73
2019-02-25T11:02:27.121Z,103396.88
2019-02-25T11:03:32.118Z,103394.14
2019-02-25T11:04:37.428Z,103393.41
2019-02-25T11:05:42.146Z,103394.05
2019-02-25T11:06:47.239Z,103396.25
2019-02-25T11:07:52.610Z,103388.77
2019-02-25T11:09:06.890Z,103391.73
2019-02-25T11:10:24.088Z,103384.21
2019-02-25T11:11:32.251Z,103378.00
2019-02-25T11:12:37.216Z,103386.48
2019-02-25T11:13:41.917Z,103375.39
2019-02-25T11:14:46.374Z,103369.89
2019-02-25T11:15:50.853Z,103364.45
2019-02-25T11:16:56.070Z,103369.78
2019-02-25T11:18:00.853Z,103367.82
2019-02-25T11:19:05.851Z,103363.72
2019-02-25T11:20:11.187Z,103365.38
2019-02-25T11:21:16.404Z,103362.41
2019-02-25T11:22:21.136Z,103362.96
2019-02-25T11:23:26.123Z,103358.39
2019-02-25T11:24:32.285Z,103358.53
2019-02-25T11:25:36.972Z,103356.59
2019-02-25T11:26:45.742Z,103353.98
2019-02-25T11:27:51.367Z,103359.24
2019-02-25T11:28:56.704Z,103359.45
2019-02-25T11:30:01.985Z,103356.39
2019-02-25T11:31:07.349Z,103358.14
2019-02-25T11:32:12.299Z,103353.00
2019-02-25T11:33:17.554Z,103360.67
2019-02-25T11:34:22.933Z,103359.61
2019-02-25T11:35:28.037Z,103354.89
2019-02-25T11:36:33.300Z,103351.87
2019-02-25T11:37:38.344Z,103349.34
2019-02-25T11:38:43.593Z,103348.56
2019-02-25T11:39:49.155Z,103345.06
2019-02-25T11:40:55.940Z,103343.82
2019-02-25T11:42:02.830Z,103337.70
2019-02-25T11:43:08.408Z,103338.69
2019-02-25T11:44:14.010Z,103329.00
2019-02-25T11:45:18.691Z,103338.72
2019-02-25T11:46:23.677Z,103337.59
2019-02-25T11:47:28.349Z,103329.20
2019-02-25T11:48:33.369Z,103321.10
2019-02-25T11:49:38.402Z,103326.61
2019-02-25T11:50:44.858Z,103330.92
2019-02-25T11:51:50.292Z,103320.67
2019-02-25T11:52:55.557Z,103326.59
2019-02-25T11:54:00.290Z,103325.47
2019-02-25T11:55:05.412Z,103323.25
2019-02-25T11:56:10.112Z,103329.05
2019-02-25T11:57:14.851Z,103322.95
2019-02-25T11:58:19.862Z,103318.13
2019-02-25T11:59:25.485Z,103317.72
2019-02-25T12:00:30.703Z,103315.88
2019-02-25T12:01:36.011Z,103321.64
2019-02-25T12:02:41.094Z,103319.70
2019-02-25T12:03:46.424Z,103322.34
2019-02-25T12:04:51.408Z,103324.67
2019-02-25T12:05:56.684Z,103320.54
2019-02-25T12:07:01.655Z,103316.91
2019-02-25T12:08:06.422Z,103316.48
2019-02-25T12:09:11.707Z,103314.73
2019-02-25T12:10:17.047Z,103313.14
2019-02-25T12:11:22.315Z,103309.88
2019-02-25T12:12:27.711Z,103306.81
2019-02-25T12:13:32.713Z,103302.02
2019-02-25T12:14:37.977Z,103305.72
2019-02-25T12:15:42.961Z,103311.15
2019-02-25T12:16:48.357Z,103306.61
2019-02-25T12:17:53.507Z,103306.70
2019-02-25T12:18:58.259Z,103301.47
2019-02-25T12:20:03.527Z,103300.72
2019-02-25T12:21:09.082Z,103301.22
2019-02-25T12:22:14.307Z,103296.00
2019-02-25T12:23:19.032Z,103296.20
2019-02-25T12:24:24.079Z,103293.14
2019-02-25T12:25:29.426Z,103292.88
2019-02-25T12:26:34.969Z,103295.73
2019-02-25T12:27:39.959Z,103292.47
2019-02-25T12:28:44.738Z,103291.73
2019-02-25T12:29:49.715Z,103287.13
2019-02-25T12:30:54.708Z,103292.94
2019-02-25T12:31:59.931Z,103294.12
2019-02-25T12:33:05.186Z,103297.44
2019-02-25T12:34:10.300Z,103292.50
2019-02-25T12:35:14.994Z,103295.41
2019-02-25T12:36:19.944Z,103292.38
2019-02-25T12:37:24.930Z,103289.36
2019-02-25T12:38:30.236Z,103293.56
2019-02-25T12:39:35.576Z,103289.96
2019-02-25T12:40:41.108Z,103288.22
2019-02-25T12:41:46.626Z,103289.53
2019-02-25T12:42:51.874Z,103289.18
2019-02-25T12:43:56.963Z,103286.33
2019-02-25T12:45:02.159Z,103286.72
2019-02-25T12:46:07.448Z,103280.50
2019-02-25T12:47:12.717Z,103272.78
2019-02-25T12:48:17.655Z,103280.38
2019-02-25T12:49:22.924Z,103279.03